sensor_id;sensor_type;location;lat;lon;timestamp;P1;durP1;ratioP1;P2;durP2;ratioP2
66380;SDS011;53177;52.648;1.214;2023-11-21T00:00:13;9.18;;;2.40;;
66380;SDS011;53177;52.648;1.214;2023-11-21T00:02:41;5.20;;;1.90;;
66380;SDS011;53177;52.648;1.214;2023-11-21T00:05:10;8.40;;;1.80;;
66380;SDS011;53177;52.648;1.214;2023-11-21T00:07:37;7.07;;;2.08;;
66380;SDS011;53177;52.648;1.214;2023-11-21T00:10:03;5.87;;;1.57;;
66380;SDS011;53177;52.648;1.214;2023-11-21T00:12:30;7.28;;;1.95;;
66380;SDS011;53177;52.648;1.214;2023-11-21T00:14:56;8.20;;;1.75;;
66380;SDS011;53177;52.648;1.214;2023-11-21T00:17:22;8.67;;;1.90;;
66380;SDS011;53177;52.648;1.214;2023-11-21T00:19:48;5.95;;;1.60;;
66380;SDS011;53177;52.648;1.214;2023-11-21T00:22:13;5.73;;;1.60;;
66380;SDS011;53177;52.648;1.214;2023-11-21T00:24:39;8.23;;;1.70;;
66380;SDS011;53177;52.648;1.214;2023-11-21T00:27:04;6.00;;;1.65;;
66380;SDS011;53177;52.648;1.214;2023-11-21T00:29:31;10.50;;;1.70;;
66380;SDS011;53177;52.648;1.214;2023-11-21T00:31:56;7.30;;;1.80;;
66380;SDS011;53177;52.648;1.214;2023-11-21T00:34:21;7.00;;;1.85;;
66380;SDS011;53177;52.648;1.214;2023-11-21T00:36:47;7.43;;;1.83;;
66380;SDS011;53177;52.648;1.214;2023-11-21T00:39:12;10.37;;;1.70;;
66380;SDS011;53177;52.648;1.214;2023-11-21T00:41:38;9.93;;;2.00;;
66380;SDS011;53177;52.648;1.214;2023-11-21T00:44:03;9.37;;;2.10;;
66380;SDS011;53177;52.648;1.214;2023-11-21T00:46:29;8.63;;;1.77;;
66380;SDS011;53177;52.648;1.214;2023-11-21T00:48:54;9.13;;;1.90;;
66380;SDS011;53177;52.648;1.214;2023-11-21T00:51:20;9.13;;;2.00;;
66380;SDS011;53177;52.648;1.214;2023-11-21T00:53:47;14.33;;;2.03;;
66380;SDS011;53177;52.648;1.214;2023-11-21T00:56:12;9.73;;;2.00;;
66380;SDS011;53177;52.648;1.214;2023-11-21T00:58:39;9.20;;;2.08;;
66380;SDS011;53177;52.648;1.214;2023-11-21T01:01:08;9.68;;;1.92;;
66380;SDS011;53177;52.648;1.214;2023-11-21T01:03:34;10.90;;;2.13;;
66380;SDS011;53177;52.648;1.214;2023-11-21T01:06:00;10.45;;;1.90;;
66380;SDS011;53177;52.648;1.214;2023-11-21T01:08:25;10.30;;;2.10;;
66380;SDS011;53177;52.648;1.214;2023-11-21T01:10:52;12.73;;;2.57;;
66380;SDS011;53177;52.648;1.214;2023-11-21T01:13:19;11.85;;;2.83;;
66380;SDS011;53177;52.648;1.214;2023-11-21T01:15:46;11.60;;;2.80;;
66380;SDS011;53177;52.648;1.214;2023-11-21T01:18:11;12.20;;;3.13;;
66380;SDS011;53177;52.648;1.214;2023-11-21T01:20:37;17.90;;;3.53;;
66380;SDS011;53177;52.648;1.214;2023-11-21T01:23:02;14.43;;;3.83;;
66380;SDS011;53177;52.648;1.214;2023-11-21T01:25:27;14.60;;;3.70;;
66380;SDS011;53177;52.648;1.214;2023-11-21T01:27:53;15.53;;;3.70;;
66380;SDS011;53177;52.648;1.214;2023-11-21T01:30:19;12.23;;;3.40;;
66380;SDS011;53177;52.648;1.214;2023-11-21T01:32:44;12.00;;;3.00;;
66380;SDS011;53177;52.648;1.214;2023-11-21T01:35:10;11.93;;;2.80;;
66380;SDS011;53177;52.648;1.214;2023-11-21T01:37:36;9.97;;;2.93;;
66380;SDS011;53177;52.648;1.214;2023-11-21T01:40:02;11.40;;;2.70;;
66380;SDS011;53177;52.648;1.214;2023-11-21T01:42:30;11.35;;;2.40;;
66380;SDS011;53177;52.648;1.214;2023-11-21T01:44:55;10.20;;;2.30;;
66380;SDS011;53177;52.648;1.214;2023-11-21T01:47:21;9.87;;;2.37;;
66380;SDS011;53177;52.648;1.214;2023-11-21T01:49:46;12.47;;;3.07;;
66380;SDS011;53177;52.648;1.214;2023-11-21T01:52:13;10.40;;;2.80;;
66380;SDS011;53177;52.648;1.214;2023-11-21T01:54:39;9.55;;;2.30;;
66380;SDS011;53177;52.648;1.214;2023-11-21T01:57:06;9.73;;;2.78;;
66380;SDS011;53177;52.648;1.214;2023-11-21T01:59:35;9.23;;;2.43;;
66380;SDS011;53177;52.648;1.214;2023-11-21T02:02:07;6.93;;;2.10;;
66380;SDS011;53177;52.648;1.214;2023-11-21T02:04:32;7.93;;;2.50;;
66380;SDS011;53177;52.648;1.214;2023-11-21T02:06:59;6.17;;;1.77;;
66380;SDS011;53177;52.648;1.214;2023-11-21T02:09:28;7.50;;;1.80;;
66380;SDS011;53177;52.648;1.214;2023-11-21T02:11:55;7.18;;;2.00;;
66380;SDS011;53177;52.648;1.214;2023-11-21T02:14:21;6.27;;;1.60;;
66380;SDS011;53177;52.648;1.214;2023-11-21T02:16:50;5.55;;;1.30;;
66380;SDS011;53177;52.648;1.214;2023-11-21T02:19:20;4.50;;;1.30;;
66380;SDS011;53177;52.648;1.214;2023-11-21T02:21:49;5.68;;;1.50;;
66380;SDS011;53177;52.648;1.214;2023-11-21T02:24:15;6.28;;;1.52;;
66380;SDS011;53177;52.648;1.214;2023-11-21T02:26:42;6.77;;;1.53;;
66380;SDS011;53177;52.648;1.214;2023-11-21T02:29:08;5.80;;;1.27;;
66380;SDS011;53177;52.648;1.214;2023-11-21T02:31:36;4.70;;;1.40;;
66380;SDS011;53177;52.648;1.214;2023-11-21T02:34:10;5.05;;;1.30;;
66380;SDS011;53177;52.648;1.214;2023-11-21T02:36:38;5.75;;;1.20;;
66380;SDS011;53177;52.648;1.214;2023-11-21T02:39:04;4.60;;;1.30;;
66380;SDS011;53177;52.648;1.214;2023-11-21T02:41:29;4.80;;;1.20;;
66380;SDS011;53177;52.648;1.214;2023-11-21T02:43:55;4.30;;;1.00;;
66380;SDS011;53177;52.648;1.214;2023-11-21T02:46:20;6.07;;;1.10;;
66380;SDS011;53177;52.648;1.214;2023-11-21T02:48:46;3.45;;;0.93;;
66380;SDS011;53177;52.648;1.214;2023-11-21T02:51:11;4.73;;;1.00;;
66380;SDS011;53177;52.648;1.214;2023-11-21T02:53:36;4.70;;;1.00;;
66380;SDS011;53177;52.648;1.214;2023-11-21T02:56:03;3.65;;;1.00;;
66380;SDS011;53177;52.648;1.214;2023-11-21T02:58:29;4.00;;;0.80;;
66380;SDS011;53177;52.648;1.214;2023-11-21T03:00:55;3.00;;;0.80;;
66380;SDS011;53177;52.648;1.214;2023-11-21T03:03:21;4.90;;;0.80;;
66380;SDS011;53177;52.648;1.214;2023-11-21T03:05:48;4.15;;;0.80;;
66380;SDS011;53177;52.648;1.214;2023-11-21T03:08:14;4.47;;;0.80;;
66380;SDS011;53177;52.648;1.214;2023-11-21T03:10:39;3.78;;;0.70;;
66380;SDS011;53177;52.648;1.214;2023-11-21T03:13:05;3.58;;;0.73;;
66380;SDS011;53177;52.648;1.214;2023-11-21T03:15:30;4.37;;;0.80;;
66380;SDS011;53177;52.648;1.214;2023-11-21T03:17:57;3.10;;;0.80;;
66380;SDS011;53177;52.648;1.214;2023-11-21T03:20:23;3.43;;;0.80;;
66380;SDS011;53177;52.648;1.214;2023-11-21T03:22:50;3.08;;;0.75;;
66380;SDS011;53177;52.648;1.214;2023-11-21T03:25:16;2.77;;;0.60;;
66380;SDS011;53177;52.648;1.214;2023-11-21T03:27:42;4.13;;;0.80;;
66380;SDS011;53177;52.648;1.214;2023-11-21T03:30:08;2.43;;;0.60;;
66380;SDS011;53177;52.648;1.214;2023-11-21T03:32:34;4.32;;;0.65;;
66380;SDS011;53177;52.648;1.214;2023-11-21T03:35:00;3.35;;;0.70;;
66380;SDS011;53177;52.648;1.214;2023-11-21T03:37:27;3.23;;;0.70;;
66380;SDS011;53177;52.648;1.214;2023-11-21T03:39:52;2.72;;;0.70;;
66380;SDS011;53177;52.648;1.214;2023-11-21T03:42:18;4.03;;;0.80;;
66380;SDS011;53177;52.648;1.214;2023-11-21T03:44:43;4.70;;;0.80;;
66380;SDS011;53177;52.648;1.214;2023-11-21T03:47:09;5.35;;;1.10;;
66380;SDS011;53177;52.648;1.214;2023-11-21T03:49:34;3.70;;;0.80;;
66380;SDS011;53177;52.648;1.214;2023-11-21T03:52:00;4.43;;;0.70;;
66380;SDS011;53177;52.648;1.214;2023-11-21T03:54:25;4.77;;;0.77;;
66380;SDS011;53177;52.648;1.214;2023-11-21T03:56:50;4.47;;;0.73;;
66380;SDS011;53177;52.648;1.214;2023-11-21T03:59:17;3.20;;;0.77;;
66380;SDS011;53177;52.648;1.214;2023-11-21T04:01:42;3.23;;;0.63;;
66380;SDS011;53177;52.648;1.214;2023-11-21T04:04:07;4.28;;;0.77;;
66380;SDS011;53177;52.648;1.214;2023-11-21T04:06:33;4.43;;;0.70;;
66380;SDS011;53177;52.648;1.214;2023-11-21T04:08:58;4.87;;;0.90;;
66380;SDS011;53177;52.648;1.214;2023-11-21T04:11:24;3.30;;;0.87;;
66380;SDS011;53177;52.648;1.214;2023-11-21T04:13:49;4.40;;;0.90;;
66380;SDS011;53177;52.648;1.214;2023-11-21T04:16:15;6.67;;;0.87;;
66380;SDS011;53177;52.648;1.214;2023-11-21T04:18:40;3.90;;;0.70;;
66380;SDS011;53177;52.648;1.214;2023-11-21T04:21:06;3.93;;;0.80;;
66380;SDS011;53177;52.648;1.214;2023-11-21T04:23:31;3.67;;;0.75;;
66380;SDS011;53177;52.648;1.214;2023-11-21T04:25:58;3.60;;;0.77;;
66380;SDS011;53177;52.648;1.214;2023-11-21T04:28:27;4.25;;;0.70;;
66380;SDS011;53177;52.648;1.214;2023-11-21T04:30:52;4.83;;;0.90;;
66380;SDS011;53177;52.648;1.214;2023-11-21T04:33:18;5.28;;;1.05;;
66380;SDS011;53177;52.648;1.214;2023-11-21T04:35:43;6.97;;;1.50;;
66380;SDS011;53177;52.648;1.214;2023-11-21T04:38:09;5.57;;;1.37;;
66380;SDS011;53177;52.648;1.214;2023-11-21T04:40:34;5.80;;;1.40;;
66380;SDS011;53177;52.648;1.214;2023-11-21T04:43:00;7.05;;;1.40;;
66380;SDS011;53177;52.648;1.214;2023-11-21T04:45:26;5.33;;;1.30;;
66380;SDS011;53177;52.648;1.214;2023-11-21T04:47:51;5.72;;;1.48;;
66380;SDS011;53177;52.648;1.214;2023-11-21T04:50:18;6.63;;;1.70;;
66380;SDS011;53177;52.648;1.214;2023-11-21T04:52:44;6.82;;;1.38;;
66380;SDS011;53177;52.648;1.214;2023-11-21T04:55:10;6.33;;;1.63;;
66380;SDS011;53177;52.648;1.214;2023-11-21T04:57:35;7.57;;;1.70;;
66380;SDS011;53177;52.648;1.214;2023-11-21T05:00:01;8.77;;;1.58;;
66380;SDS011;53177;52.648;1.214;2023-11-21T05:02:30;8.10;;;1.77;;
66380;SDS011;53177;52.648;1.214;2023-11-21T05:04:56;7.57;;;1.88;;
66380;SDS011;53177;52.648;1.214;2023-11-21T05:07:22;6.63;;;1.90;;
66380;SDS011;53177;52.648;1.214;2023-11-21T05:09:47;8.10;;;1.80;;
66380;SDS011;53177;52.648;1.214;2023-11-21T05:12:13;6.60;;;1.50;;
66380;SDS011;53177;52.648;1.214;2023-11-21T05:14:39;5.18;;;1.70;;
66380;SDS011;53177;52.648;1.214;2023-11-21T05:17:05;5.53;;;1.30;;
66380;SDS011;53177;52.648;1.214;2023-11-21T05:19:30;4.90;;;1.20;;
66380;SDS011;53177;52.648;1.214;2023-11-21T05:21:56;5.60;;;1.30;;
66380;SDS011;53177;52.648;1.214;2023-11-21T05:24:21;5.30;;;1.20;;
66380;SDS011;53177;52.648;1.214;2023-11-21T05:26:47;4.07;;;1.10;;
66380;SDS011;53177;52.648;1.214;2023-11-21T05:29:12;5.77;;;1.40;;
66380;SDS011;53177;52.648;1.214;2023-11-21T05:31:38;6.60;;;1.70;;
66380;SDS011;53177;52.648;1.214;2023-11-21T05:34:04;5.73;;;1.70;;
66380;SDS011;53177;52.648;1.214;2023-11-21T05:36:32;6.20;;;1.70;;
66380;SDS011;53177;52.648;1.214;2023-11-21T05:38:58;7.13;;;1.95;;
66380;SDS011;53177;52.648;1.214;2023-11-21T05:41:24;7.03;;;1.90;;
66380;SDS011;53177;52.648;1.214;2023-11-21T05:43:50;10.18;;;2.25;;
66380;SDS011;53177;52.648;1.214;2023-11-21T05:46:16;6.60;;;1.87;;
66380;SDS011;53177;52.648;1.214;2023-11-21T05:48:41;7.37;;;2.00;;
66380;SDS011;53177;52.648;1.214;2023-11-21T05:51:07;7.47;;;2.43;;
66380;SDS011;53177;52.648;1.214;2023-11-21T05:53:33;6.40;;;1.80;;
66380;SDS011;53177;52.648;1.214;2023-11-21T05:55:59;6.55;;;2.00;;
66380;SDS011;53177;52.648;1.214;2023-11-21T05:58:24;7.37;;;2.00;;
66380;SDS011;53177;52.648;1.214;2023-11-21T06:00:49;7.97;;;1.80;;
66380;SDS011;53177;52.648;1.214;2023-11-21T06:03:15;9.67;;;1.70;;
66380;SDS011;53177;52.648;1.214;2023-11-21T06:05:42;9.85;;;1.77;;
66380;SDS011;53177;52.648;1.214;2023-11-21T06:08:08;8.27;;;1.70;;
66380;SDS011;53177;52.648;1.214;2023-11-21T06:10:34;7.53;;;1.70;;
66380;SDS011;53177;52.648;1.214;2023-11-21T06:13:00;7.78;;;1.80;;
66380;SDS011;53177;52.648;1.214;2023-11-21T06:15:25;8.47;;;1.47;;
66380;SDS011;53177;52.648;1.214;2023-11-21T06:17:51;5.57;;;1.40;;
66380;SDS011;53177;52.648;1.214;2023-11-21T06:20:20;8.30;;;1.73;;
66380;SDS011;53177;52.648;1.214;2023-11-21T06:22:47;8.02;;;1.48;;
66380;SDS011;53177;52.648;1.214;2023-11-21T06:25:13;7.22;;;1.27;;
66380;SDS011;53177;52.648;1.214;2023-11-21T06:27:43;4.37;;;1.00;;
66380;SDS011;53177;52.648;1.214;2023-11-21T06:30:09;5.05;;;1.05;;
66380;SDS011;53177;52.648;1.214;2023-11-21T06:32:37;8.40;;;1.10;;
66380;SDS011;53177;52.648;1.214;2023-11-21T06:35:03;6.90;;;1.10;;
66380;SDS011;53177;52.648;1.214;2023-11-21T06:37:29;10.82;;;1.40;;
66380;SDS011;53177;52.648;1.214;2023-11-21T06:39:55;4.63;;;0.98;;
66380;SDS011;53177;52.648;1.214;2023-11-21T06:42:22;5.25;;;1.10;;
66380;SDS011;53177;52.648;1.214;2023-11-21T06:44:48;6.30;;;0.93;;
66380;SDS011;53177;52.648;1.214;2023-11-21T06:47:17;7.87;;;1.17;;
66380;SDS011;53177;52.648;1.214;2023-11-21T06:49:43;5.93;;;1.10;;
66380;SDS011;53177;52.648;1.214;2023-11-21T06:52:08;5.57;;;1.10;;
66380;SDS011;53177;52.648;1.214;2023-11-21T06:54:34;7.80;;;1.50;;
66380;SDS011;53177;52.648;1.214;2023-11-21T06:57:00;5.70;;;1.33;;
66380;SDS011;53177;52.648;1.214;2023-11-21T06:59:28;9.00;;;1.70;;
66380;SDS011;53177;52.648;1.214;2023-11-21T07:01:53;7.18;;;1.75;;
66380;SDS011;53177;52.648;1.214;2023-11-21T07:04:19;7.90;;;1.52;;
66380;SDS011;53177;52.648;1.214;2023-11-21T07:06:47;11.27;;;2.00;;
66380;SDS011;53177;52.648;1.214;2023-11-21T07:09:15;10.07;;;1.90;;
66380;SDS011;53177;52.648;1.214;2023-11-21T07:11:48;7.82;;;1.67;;
66380;SDS011;53177;52.648;1.214;2023-11-21T07:14:20;9.63;;;1.60;;
66380;SDS011;53177;52.648;1.214;2023-11-21T07:16:48;8.30;;;1.80;;
66380;SDS011;53177;52.648;1.214;2023-11-21T07:19:13;7.43;;;1.83;;
66380;SDS011;53177;52.648;1.214;2023-11-21T07:21:39;7.40;;;1.60;;
66380;SDS011;53177;52.648;1.214;2023-11-21T07:24:05;11.18;;;2.60;;
66380;SDS011;53177;52.648;1.214;2023-11-21T07:26:32;10.88;;;2.47;;
66380;SDS011;53177;52.648;1.214;2023-11-21T07:28:58;14.93;;;3.20;;
66380;SDS011;53177;52.648;1.214;2023-11-21T07:31:25;11.00;;;2.93;;
66380;SDS011;53177;52.648;1.214;2023-11-21T07:33:50;11.50;;;2.60;;
66380;SDS011;53177;52.648;1.214;2023-11-21T07:36:17;10.35;;;2.72;;
66380;SDS011;53177;52.648;1.214;2023-11-21T07:38:46;13.13;;;2.63;;
66380;SDS011;53177;52.648;1.214;2023-11-21T07:41:11;11.38;;;2.72;;
66380;SDS011;53177;52.648;1.214;2023-11-21T07:43:40;12.80;;;2.90;;
66380;SDS011;53177;52.648;1.214;2023-11-21T07:46:06;10.33;;;2.40;;
66380;SDS011;53177;52.648;1.214;2023-11-21T07:48:33;12.27;;;2.67;;
66380;SDS011;53177;52.648;1.214;2023-11-21T07:50:59;13.32;;;2.80;;
66380;SDS011;53177;52.648;1.214;2023-11-21T07:53:25;12.23;;;2.97;;
66380;SDS011;53177;52.648;1.214;2023-11-21T07:55:53;10.73;;;2.40;;
66380;SDS011;53177;52.648;1.214;2023-11-21T07:58:19;9.50;;;2.70;;
66380;SDS011;53177;52.648;1.214;2023-11-21T08:00:44;9.13;;;2.80;;
66380;SDS011;53177;52.648;1.214;2023-11-21T08:03:10;11.40;;;2.87;;
66380;SDS011;53177;52.648;1.214;2023-11-21T08:05:36;15.52;;;3.33;;
66380;SDS011;53177;52.648;1.214;2023-11-21T08:08:02;11.90;;;2.80;;
66380;SDS011;53177;52.648;1.214;2023-11-21T08:10:27;14.93;;;3.10;;
66380;SDS011;53177;52.648;1.214;2023-11-21T08:12:55;12.80;;;2.92;;
66380;SDS011;53177;52.648;1.214;2023-11-21T08:15:20;11.13;;;2.90;;
66380;SDS011;53177;52.648;1.214;2023-11-21T08:17:46;11.10;;;2.80;;
66380;SDS011;53177;52.648;1.214;2023-11-21T08:20:12;11.45;;;3.25;;
66380;SDS011;53177;52.648;1.214;2023-11-21T08:22:41;13.60;;;3.05;;
66380;SDS011;53177;52.648;1.214;2023-11-21T08:25:10;11.30;;;2.83;;
66380;SDS011;53177;52.648;1.214;2023-11-21T08:27:35;13.83;;;3.33;;
66380;SDS011;53177;52.648;1.214;2023-11-21T08:30:02;11.63;;;2.92;;
66380;SDS011;53177;52.648;1.214;2023-11-21T08:32:29;11.17;;;2.83;;
66380;SDS011;53177;52.648;1.214;2023-11-21T08:34:58;8.70;;;2.30;;
66380;SDS011;53177;52.648;1.214;2023-11-21T08:37:26;15.32;;;2.90;;
66380;SDS011;53177;52.648;1.214;2023-11-21T08:39:57;12.27;;;2.90;;
66380;SDS011;53177;52.648;1.214;2023-11-21T08:42:24;11.60;;;2.58;;
66380;SDS011;53177;52.648;1.214;2023-11-21T08:44:50;11.33;;;2.87;;
66380;SDS011;53177;52.648;1.214;2023-11-21T08:47:16;13.43;;;3.03;;
66380;SDS011;53177;52.648;1.214;2023-11-21T08:49:41;13.27;;;3.20;;
66380;SDS011;53177;52.648;1.214;2023-11-21T08:52:07;11.23;;;2.87;;
66380;SDS011;53177;52.648;1.214;2023-11-21T08:54:33;13.98;;;3.10;;
66380;SDS011;53177;52.648;1.214;2023-11-21T08:57:02;12.93;;;3.05;;
66380;SDS011;53177;52.648;1.214;2023-11-21T08:59:28;12.45;;;2.92;;
66380;SDS011;53177;52.648;1.214;2023-11-21T09:01:53;12.07;;;3.33;;
66380;SDS011;53177;52.648;1.214;2023-11-21T09:04:18;13.60;;;3.00;;
66380;SDS011;53177;52.648;1.214;2023-11-21T09:06:44;11.53;;;2.90;;
66380;SDS011;53177;52.648;1.214;2023-11-21T09:09:09;10.50;;;2.93;;
66380;SDS011;53177;52.648;1.214;2023-11-21T09:11:35;13.90;;;3.17;;
66380;SDS011;53177;52.648;1.214;2023-11-21T09:14:01;11.38;;;3.35;;
66380;SDS011;53177;52.648;1.214;2023-11-21T09:16:28;11.85;;;2.70;;
66380;SDS011;53177;52.648;1.214;2023-11-21T09:18:53;12.63;;;2.83;;
66380;SDS011;53177;52.648;1.214;2023-11-21T09:21:19;14.02;;;2.78;;
66380;SDS011;53177;52.648;1.214;2023-11-21T09:23:44;10.60;;;2.47;;
66380;SDS011;53177;52.648;1.214;2023-11-21T09:26:10;10.43;;;2.25;;
66380;SDS011;53177;52.648;1.214;2023-11-21T09:28:36;12.13;;;2.40;;
66380;SDS011;53177;52.648;1.214;2023-11-21T09:31:07;11.73;;;2.40;;
66380;SDS011;53177;52.648;1.214;2023-11-21T09:33:34;9.17;;;2.10;;
66380;SDS011;53177;52.648;1.214;2023-11-21T09:36:00;7.28;;;1.95;;
66380;SDS011;53177;52.648;1.214;2023-11-21T09:38:26;10.25;;;2.33;;
66380;SDS011;53177;52.648;1.214;2023-11-21T09:40:53;9.77;;;2.73;;
66380;SDS011;53177;52.648;1.214;2023-11-21T09:43:20;9.48;;;2.42;;
66380;SDS011;53177;52.648;1.214;2023-11-21T09:45:47;12.45;;;2.55;;
66380;SDS011;53177;52.648;1.214;2023-11-21T09:48:19;11.57;;;2.30;;
66380;SDS011;53177;52.648;1.214;2023-11-21T09:50:45;8.53;;;2.30;;
66380;SDS011;53177;52.648;1.214;2023-11-21T09:55:39;9.55;;;2.00;;
66380;SDS011;53177;52.648;1.214;2023-11-21T09:58:08;10.75;;;2.10;;
66380;SDS011;53177;52.648;1.214;2023-11-21T10:00:37;11.82;;;2.05;;
66380;SDS011;53177;52.648;1.214;2023-11-21T10:03:07;9.33;;;1.90;;
66380;SDS011;53177;52.648;1.214;2023-11-21T10:05:33;10.35;;;2.78;;
66380;SDS011;53177;52.648;1.214;2023-11-21T10:07:59;9.27;;;1.80;;
66380;SDS011;53177;52.648;1.214;2023-11-21T10:10:26;9.80;;;2.15;;
66380;SDS011;53177;52.648;1.214;2023-11-21T10:12:56;10.02;;;1.95;;
66380;SDS011;53177;52.648;1.214;2023-11-21T10:15:22;11.00;;;1.60;;
66380;SDS011;53177;52.648;1.214;2023-11-21T10:17:53;8.40;;;1.38;;
66380;SDS011;53177;52.648;1.214;2023-11-21T10:20:20;4.18;;;0.95;;
66380;SDS011;53177;52.648;1.214;2023-11-21T10:22:48;4.28;;;1.00;;
66380;SDS011;53177;52.648;1.214;2023-11-21T10:25:14;3.92;;;0.80;;
66380;SDS011;53177;52.648;1.214;2023-11-21T10:27:39;4.80;;;0.90;;
66380;SDS011;53177;52.648;1.214;2023-11-21T10:30:06;4.95;;;0.80;;
66380;SDS011;53177;52.648;1.214;2023-11-21T10:32:36;4.35;;;0.70;;
66380;SDS011;53177;52.648;1.214;2023-11-21T10:35:06;5.37;;;0.70;;
66380;SDS011;53177;52.648;1.214;2023-11-21T10:37:35;8.10;;;0.80;;
66380;SDS011;53177;52.648;1.214;2023-11-21T10:40:05;4.22;;;0.80;;
66380;SDS011;53177;52.648;1.214;2023-11-21T10:42:32;11.10;;;1.10;;
66380;SDS011;53177;52.648;1.214;2023-11-21T10:44:57;6.07;;;0.93;;
66380;SDS011;53177;52.648;1.214;2023-11-21T10:47:23;7.85;;;1.63;;
66380;SDS011;53177;52.648;1.214;2023-11-21T10:49:49;6.43;;;1.07;;
66380;SDS011;53177;52.648;1.214;2023-11-21T10:52:14;5.67;;;1.03;;
66380;SDS011;53177;52.648;1.214;2023-11-21T10:54:45;5.53;;;0.98;;
66380;SDS011;53177;52.648;1.214;2023-11-21T10:57:11;13.63;;;1.63;;
66380;SDS011;53177;52.648;1.214;2023-11-21T10:59:41;8.85;;;1.00;;
66380;SDS011;53177;52.648;1.214;2023-11-21T11:02:31;8.00;;;1.15;;
66380;SDS011;53177;52.648;1.214;2023-11-21T11:04:58;6.20;;;1.40;;
66380;SDS011;53177;52.648;1.214;2023-11-21T11:07:26;11.52;;;1.45;;
66380;SDS011;53177;52.648;1.214;2023-11-21T11:09:56;13.25;;;1.50;;
66380;SDS011;53177;52.648;1.214;2023-11-21T11:12:23;10.25;;;1.85;;
66380;SDS011;53177;52.648;1.214;2023-11-21T11:14:49;8.23;;;1.80;;
66380;SDS011;53177;52.648;1.214;2023-11-21T11:17:16;12.38;;;2.17;;
66380;SDS011;53177;52.648;1.214;2023-11-21T11:19:44;15.82;;;1.98;;
66380;SDS011;53177;52.648;1.214;2023-11-21T11:25:10;16.60;;;2.13;;
66380;SDS011;53177;52.648;1.214;2023-11-21T11:27:47;12.32;;;1.75;;
66380;SDS011;53177;52.648;1.214;2023-11-21T11:36:03;12.70;;;1.33;;
66380;SDS011;53177;52.648;1.214;2023-11-21T11:38:30;8.75;;;1.45;;
66380;SDS011;53177;52.648;1.214;2023-11-21T11:40:57;12.65;;;1.85;;
66380;SDS011;53177;52.648;1.214;2023-11-21T11:43:28;14.77;;;1.92;;
66380;SDS011;53177;52.648;1.214;2023-11-21T11:45:56;11.20;;;1.77;;
66380;SDS011;53177;52.648;1.214;2023-11-21T11:48:24;9.77;;;1.67;;
66380;SDS011;53177;52.648;1.214;2023-11-21T11:53:46;13.75;;;1.63;;
66380;SDS011;53177;52.648;1.214;2023-11-21T11:58:44;12.00;;;1.83;;
66380;SDS011;53177;52.648;1.214;2023-11-21T12:01:10;11.40;;;1.80;;
66380;SDS011;53177;52.648;1.214;2023-11-21T12:03:37;13.48;;;1.55;;
66380;SDS011;53177;52.648;1.214;2023-11-21T12:06:02;11.00;;;1.87;;
66380;SDS011;53177;52.648;1.214;2023-11-21T12:08:28;9.10;;;1.88;;
66380;SDS011;53177;52.648;1.214;2023-11-21T12:10:56;14.18;;;1.67;;
66380;SDS011;53177;52.648;1.214;2023-11-21T12:13:22;15.87;;;1.50;;
66380;SDS011;53177;52.648;1.214;2023-11-21T12:15:48;8.70;;;1.50;;
66380;SDS011;53177;52.648;1.214;2023-11-21T12:18:14;11.07;;;1.43;;
66380;SDS011;53177;52.648;1.214;2023-11-21T12:20:39;7.95;;;1.55;;
66380;SDS011;53177;52.648;1.214;2023-11-21T12:23:06;9.68;;;1.65;;
66380;SDS011;53177;52.648;1.214;2023-11-21T12:25:33;7.93;;;1.40;;
66380;SDS011;53177;52.648;1.214;2023-11-21T12:28:01;11.25;;;1.52;;
66380;SDS011;53177;52.648;1.214;2023-11-21T12:30:29;7.47;;;1.50;;
66380;SDS011;53177;52.648;1.214;2023-11-21T12:32:57;10.40;;;1.40;;
66380;SDS011;53177;52.648;1.214;2023-11-21T12:35:24;8.27;;;2.42;;
66380;SDS011;53177;52.648;1.214;2023-11-21T12:37:51;8.40;;;2.20;;
66380;SDS011;53177;52.648;1.214;2023-11-21T12:40:19;12.27;;;2.03;;
66380;SDS011;53177;52.648;1.214;2023-11-21T12:42:48;13.73;;;1.80;;
66380;SDS011;53177;52.648;1.214;2023-11-21T12:47:45;12.77;;;1.93;;
66380;SDS011;53177;52.648;1.214;2023-11-21T12:50:12;13.65;;;2.22;;
66380;SDS011;53177;52.648;1.214;2023-11-21T12:52:44;12.57;;;2.08;;
66380;SDS011;53177;52.648;1.214;2023-11-21T12:55:17;7.22;;;1.30;;
66380;SDS011;53177;52.648;1.214;2023-11-21T12:57:44;11.33;;;1.60;;
66380;SDS011;53177;52.648;1.214;2023-11-21T13:00:11;11.05;;;1.55;;
66380;SDS011;53177;52.648;1.214;2023-11-21T13:02:50;7.90;;;1.27;;
66380;SDS011;53177;52.648;1.214;2023-11-21T13:05:23;10.47;;;1.40;;
66380;SDS011;53177;52.648;1.214;2023-11-21T13:07:57;8.65;;;1.00;;
66380;SDS011;53177;52.648;1.214;2023-11-21T13:10:25;9.35;;;1.40;;
66380;SDS011;53177;52.648;1.214;2023-11-21T13:12:56;7.70;;;1.10;;
66380;SDS011;53177;52.648;1.214;2023-11-21T13:15:23;8.13;;;1.30;;
66380;SDS011;53177;52.648;1.214;2023-11-21T13:17:49;12.10;;;1.33;;
66380;SDS011;53177;52.648;1.214;2023-11-21T13:20:17;10.77;;;1.58;;
66380;SDS011;53177;52.648;1.214;2023-11-21T13:25:19;13.50;;;1.27;;
66380;SDS011;53177;52.648;1.214;2023-11-21T13:27:47;12.07;;;1.40;;
66380;SDS011;53177;52.648;1.214;2023-11-21T13:30:13;7.73;;;1.80;;
66380;SDS011;53177;52.648;1.214;2023-11-21T13:32:48;12.77;;;1.60;;
66380;SDS011;53177;52.648;1.214;2023-11-21T13:35:16;9.63;;;1.98;;
66380;SDS011;53177;52.648;1.214;2023-11-21T13:37:55;11.33;;;1.60;;
66380;SDS011;53177;52.648;1.214;2023-11-21T13:40:25;9.23;;;1.30;;
66380;SDS011;53177;52.648;1.214;2023-11-21T13:42:54;6.68;;;1.30;;
66380;SDS011;53177;52.648;1.214;2023-11-21T13:45:22;7.82;;;1.05;;
66380;SDS011;53177;52.648;1.214;2023-11-21T13:47:52;11.98;;;2.00;;
66380;SDS011;53177;52.648;1.214;2023-11-21T13:50:23;10.53;;;1.57;;
66380;SDS011;53177;52.648;1.214;2023-11-21T13:52:57;13.23;;;2.53;;
66380;SDS011;53177;52.648;1.214;2023-11-21T13:55:24;10.27;;;1.60;;
66380;SDS011;53177;52.648;1.214;2023-11-21T13:57:50;9.55;;;1.90;;
66380;SDS011;53177;52.648;1.214;2023-11-21T14:00:18;12.37;;;2.10;;
66380;SDS011;53177;52.648;1.214;2023-11-21T14:03:08;10.57;;;2.15;;
66380;SDS011;53177;52.648;1.214;2023-11-21T14:05:42;13.90;;;2.78;;
66380;SDS011;53177;52.648;1.214;2023-11-21T14:08:09;11.43;;;1.83;;
66380;SDS011;53177;52.648;1.214;2023-11-21T14:10:37;10.63;;;2.20;;
66380;SDS011;53177;52.648;1.214;2023-11-21T14:13:11;11.37;;;2.13;;
66380;SDS011;53177;52.648;1.214;2023-11-21T14:15:38;13.90;;;1.92;;
66380;SDS011;53177;52.648;1.214;2023-11-21T14:18:07;17.85;;;2.45;;
66380;SDS011;53177;52.648;1.214;2023-11-21T14:20:35;9.10;;;1.60;;
66380;SDS011;53177;52.648;1.214;2023-11-21T14:23:02;11.63;;;2.15;;
66380;SDS011;53177;52.648;1.214;2023-11-21T14:25:34;12.30;;;2.10;;
66380;SDS011;53177;52.648;1.214;2023-11-21T14:28:02;8.57;;;1.63;;
66380;SDS011;53177;52.648;1.214;2023-11-21T14:30:32;11.10;;;1.88;;
66380;SDS011;53177;52.648;1.214;2023-11-21T14:33:00;11.63;;;2.10;;
66380;SDS011;53177;52.648;1.214;2023-11-21T14:35:26;11.20;;;1.83;;
66380;SDS011;53177;52.648;1.214;2023-11-21T14:37:52;10.57;;;1.90;;
66380;SDS011;53177;52.648;1.214;2023-11-21T14:40:19;12.32;;;2.00;;
66380;SDS011;53177;52.648;1.214;2023-11-21T14:42:49;14.43;;;1.90;;
66380;SDS011;53177;52.648;1.214;2023-11-21T14:45:18;9.80;;;1.85;;
66380;SDS011;53177;52.648;1.214;2023-11-21T14:47:45;11.25;;;1.80;;
66380;SDS011;53177;52.648;1.214;2023-11-21T14:50:20;8.80;;;1.45;;
66380;SDS011;53177;52.648;1.214;2023-11-21T14:53:01;10.25;;;1.75;;
66380;SDS011;53177;52.648;1.214;2023-11-21T14:55:29;8.87;;;1.80;;
66380;SDS011;53177;52.648;1.214;2023-11-21T14:58:04;11.63;;;1.90;;
66380;SDS011;53177;52.648;1.214;2023-11-21T15:00:30;7.13;;;1.67;;
66380;SDS011;53177;52.648;1.214;2023-11-21T15:02:58;12.13;;;1.80;;